sensor_id;sensor_type;location;lat;lon;timestamp;temperature;humidity
21522;DHT22;10922;45.572;10.002;2023-04-24T00:01:27;16.10;99.90
21522;DHT22;10922;45.572;10.002;2023-04-24T00:03:55;15.90;99.90
21522;DHT22;10922;45.572;10.002;2023-04-24T00:06:25;15.90;99.90
21522;DHT22;10922;45.572;10.002;2023-04-24T00:08:59;15.90;99.90
21522;DHT22;10922;45.572;10.002;2023-04-24T00:11:25;15.80;99.90
21522;DHT22;10922;45.572;10.002;2023-04-24T00:13:50;15.80;99.90
21522;DHT22;10922;45.572;10.002;2023-04-24T00:16:16;15.80;99.90
21522;DHT22;10922;45.572;10.002;2023-04-24T00:18:42;15.70;99.90
21522;DHT22;10922;45.572;10.002;2023-04-24T00:21:07;15.60;99.90
21522;DHT22;10922;45.572;10.002;2023-04-24T00:23:33;15.50;99.90
21522;DHT22;10922;45.572;10.002;2023-04-24T00:25:59;15.40;99.90
21522;DHT22;10922;45.572;10.002;2023-04-24T00:28:24;15.40;99.90
21522;DHT22;10922;45.572;10.002;2023-04-24T00:30:50;15.50;99.90
21522;DHT22;10922;45.572;10.002;2023-04-24T00:33:15;15.50;99.90
21522;DHT22;10922;45.572;10.002;2023-04-24T00:35:41;15.40;99.90
21522;DHT22;10922;45.572;10.002;2023-04-24T00:38:07;15.40;99.90
21522;DHT22;10922;45.572;10.002;2023-04-24T00:40:32;15.40;99.90
21522;DHT22;10922;45.572;10.002;2023-04-24T00:42:58;15.40;99.90
21522;DHT22;10922;45.572;10.002;2023-04-24T00:45:24;15.30;99.90
21522;DHT22;10922;45.572;10.002;2023-04-24T00:47:52;15.20;99.90
21522;DHT22;10922;45.572;10.002;2023-04-24T00:50:18;15.10;99.90
21522;DHT22;10922;45.572;10.002;2023-04-24T00:52:44;14.80;99.90
21522;DHT22;10922;45.572;10.002;2023-04-24T00:55:10;14.50;99.90
21522;DHT22;10922;45.572;10.002;2023-04-24T00:57:37;14.30;99.90
21522;DHT22;10922;45.572;10.002;2023-04-24T01:00:05;14.40;99.90
21522;DHT22;10922;45.572;10.002;2023-04-24T01:02:31;14.50;99.90
21522;DHT22;10922;45.572;10.002;2023-04-24T01:05:00;14.60;99.90
21522;DHT22;10922;45.572;10.002;2023-04-24T01:07:26;14.60;99.90
21522;DHT22;10922;45.572;10.002;2023-04-24T01:09:53;14.60;99.90
21522;DHT22;10922;45.572;10.002;2023-04-24T01:12:19;14.70;99.90
21522;DHT22;10922;45.572;10.002;2023-04-24T01:14:45;14.70;99.90
21522;DHT22;10922;45.572;10.002;2023-04-24T01:17:11;14.70;99.90
21522;DHT22;10922;45.572;10.002;2023-04-24T01:19:37;14.70;99.90
21522;DHT22;10922;45.572;10.002;2023-04-24T01:22:08;14.70;99.90
21522;DHT22;10922;45.572;10.002;2023-04-24T01:24:34;14.60;99.90
21522;DHT22;10922;45.572;10.002;2023-04-24T01:27:00;14.50;99.90
21522;DHT22;10922;45.572;10.002;2023-04-24T01:29:26;14.40;99.90
21522;DHT22;10922;45.572;10.002;2023-04-24T01:31:52;14.40;99.90
21522;DHT22;10922;45.572;10.002;2023-04-24T01:34:18;14.10;99.90
21522;DHT22;10922;45.572;10.002;2023-04-24T01:36:45;13.90;99.90
21522;DHT22;10922;45.572;10.002;2023-04-24T01:39:12;13.90;99.90
21522;DHT22;10922;45.572;10.002;2023-04-24T01:41:38;14.00;99.90
21522;DHT22;10922;45.572;10.002;2023-04-24T01:44:03;14.00;99.90
21522;DHT22;10922;45.572;10.002;2023-04-24T01:46:29;13.90;99.90
21522;DHT22;10922;45.572;10.002;2023-04-24T01:48:58;13.90;99.90
21522;DHT22;10922;45.572;10.002;2023-04-24T01:51:25;13.80;99.90
21522;DHT22;10922;45.572;10.002;2023-04-24T01:53:50;13.80;99.90
21522;DHT22;10922;45.572;10.002;2023-04-24T01:56:16;13.80;99.90
21522;DHT22;10922;45.572;10.002;2023-04-24T01:58:43;13.80;99.90
21522;DHT22;10922;45.572;10.002;2023-04-24T02:01:09;13.70;99.90
21522;DHT22;10922;45.572;10.002;2023-04-24T02:03:40;13.80;99.90
21522;DHT22;10922;45.572;10.002;2023-04-24T02:06:06;13.70;1.00
21522;DHT22;10922;45.572;10.002;2023-04-24T02:08:32;13.60;99.90
21522;DHT22;10922;45.572;10.002;2023-04-24T02:10:57;13.50;1.00
21522;DHT22;10922;45.572;10.002;2023-04-24T02:13:23;13.50;99.90
21522;DHT22;10922;45.572;10.002;2023-04-24T02:15:48;13.50;99.90
21522;DHT22;10922;45.572;10.002;2023-04-24T02:18:14;13.50;99.90
21522;DHT22;10922;45.572;10.002;2023-04-24T02:20:40;13.50;99.90
21522;DHT22;10922;45.572;10.002;2023-04-24T02:23:06;13.50;99.90
21522;DHT22;10922;45.572;10.002;2023-04-24T02:25:33;13.50;99.90
21522;DHT22;10922;45.572;10.002;2023-04-24T02:27:58;13.50;99.90
21522;DHT22;10922;45.572;10.002;2023-04-24T02:30:24;13.50;99.90
21522;DHT22;10922;45.572;10.002;2023-04-24T02:32:50;13.40;99.90
21522;DHT22;10922;45.572;10.002;2023-04-24T02:35:15;13.30;99.90
21522;DHT22;10922;45.572;10.002;2023-04-24T02:37:41;13.20;99.90
21522;DHT22;10922;45.572;10.002;2023-04-24T02:40:07;13.20;99.90
21522;DHT22;10922;45.572;10.002;2023-04-24T02:42:34;13.10;99.90
21522;DHT22;10922;45.572;10.002;2023-04-24T02:45:00;13.10;99.90
21522;DHT22;10922;45.572;10.002;2023-04-24T02:47:25;12.90;1.00
21522;DHT22;10922;45.572;10.002;2023-04-24T02:49:51;12.90;1.00
21522;DHT22;10922;45.572;10.002;2023-04-24T02:52:16;12.90;1.00
21522;DHT22;10922;45.572;10.002;2023-04-24T02:54:44;12.90;1.00
21522;DHT22;10922;45.572;10.002;2023-04-24T02:57:09;13.00;1.00
21522;DHT22;10922;45.572;10.002;2023-04-24T02:59:35;13.00;1.00
21522;DHT22;10922;45.572;10.002;2023-04-24T03:02:01;12.90;1.00
21522;DHT22;10922;45.572;10.002;2023-04-24T03:04:26;12.70;1.00
21522;DHT22;10922;45.572;10.002;2023-04-24T03:06:52;12.60;1.00
21522;DHT22;10922;45.572;10.002;2023-04-24T03:09:20;12.70;1.00
21522;DHT22;10922;45.572;10.002;2023-04-24T03:11:46;12.70;1.00
21522;DHT22;10922;45.572;10.002;2023-04-24T03:14:12;12.70;1.00
21522;DHT22;10922;45.572;10.002;2023-04-24T03:16:37;12.70;1.00
21522;DHT22;10922;45.572;10.002;2023-04-24T03:19:03;12.70;1.00
21522;DHT22;10922;45.572;10.002;2023-04-24T03:21:29;12.70;1.00
21522;DHT22;10922;45.572;10.002;2023-04-24T03:23:55;12.70;1.00
21522;DHT22;10922;45.572;10.002;2023-04-24T03:26:20;12.70;1.00
21522;DHT22;10922;45.572;10.002;2023-04-24T03:28:46;12.70;1.00
21522;DHT22;10922;45.572;10.002;2023-04-24T03:31:11;12.70;1.00
21522;DHT22;10922;45.572;10.002;2023-04-24T03:33:37;12.80;1.00
21522;DHT22;10922;45.572;10.002;2023-04-24T03:36:03;12.80;1.00
21522;DHT22;10922;45.572;10.002;2023-04-24T03:38:30;12.80;1.00
21522;DHT22;10922;45.572;10.002;2023-04-24T03:40:56;12.80;1.00
21522;DHT22;10922;45.572;10.002;2023-04-24T03:43:21;12.90;1.00
21522;DHT22;10922;45.572;10.002;2023-04-24T03:45:47;12.90;1.00
21522;DHT22;10922;45.572;10.002;2023-04-24T03:48:12;12.90;1.00
21522;DHT22;10922;45.572;10.002;2023-04-24T03:50:38;13.00;1.00
21522;DHT22;10922;45.572;10.002;2023-04-24T03:53:04;13.00;1.00
21522;DHT22;10922;45.572;10.002;2023-04-24T03:55:29;12.90;1.00
21522;DHT22;10922;45.572;10.002;2023-04-24T03:57:55;12.90;1.00
21522;DHT22;10922;45.572;10.002;2023-04-24T04:00:21;12.90;1.00
21522;DHT22;10922;45.572;10.002;2023-04-24T04:02:46;12.90;1.00
21522;DHT22;10922;45.572;10.002;2023-04-24T04:05:12;12.90;1.00
21522;DHT22;10922;45.572;10.002;2023-04-24T04:07:38;12.90;1.00
21522;DHT22;10922;45.572;10.002;2023-04-24T04:10:04;12.90;1.00
21522;DHT22;10922;45.572;10.002;2023-04-24T04:12:30;12.80;1.00
21522;DHT22;10922;45.572;10.002;2023-04-24T04:14:55;12.90;1.00
21522;DHT22;10922;45.572;10.002;2023-04-24T04:17:21;12.90;1.00
21522;DHT22;10922;45.572;10.002;2023-04-24T04:19:47;12.90;1.00
21522;DHT22;10922;45.572;10.002;2023-04-24T04:22:12;12.90;1.00
21522;DHT22;10922;45.572;10.002;2023-04-24T04:24:38;12.90;1.00
21522;DHT22;10922;45.572;10.002;2023-04-24T04:27:06;12.90;1.00
21522;DHT22;10922;45.572;10.002;2023-04-24T04:29:32;12.90;1.00
21522;DHT22;10922;45.572;10.002;2023-04-24T04:31:58;12.90;1.00
21522;DHT22;10922;45.572;10.002;2023-04-24T04:34:24;12.80;1.00
21522;DHT22;10922;45.572;10.002;2023-04-24T04:36:49;12.90;1.00
21522;DHT22;10922;45.572;10.002;2023-04-24T04:39:16;12.90;1.00
21522;DHT22;10922;45.572;10.002;2023-04-24T04:41:43;13.00;1.00
21522;DHT22;10922;45.572;10.002;2023-04-24T04:44:09;13.00;1.00
21522;DHT22;10922;45.572;10.002;2023-04-24T04:46:35;13.00;99.90
21522;DHT22;10922;45.572;10.002;2023-04-24T04:49:02;13.00;99.90
21522;DHT22;10922;45.572;10.002;2023-04-24T04:51:28;13.00;99.90
21522;DHT22;10922;45.572;10.002;2023-04-24T04:53:54;13.00;99.90
21522;DHT22;10922;45.572;10.002;2023-04-24T04:56:20;13.10;99.90
21522;DHT22;10922;45.572;10.002;2023-04-24T04:58:46;13.10;99.90
21522;DHT22;10922;45.572;10.002;2023-04-24T05:01:11;13.20;99.90
21522;DHT22;10922;45.572;10.002;2023-04-24T05:03:37;13.20;99.90
21522;DHT22;10922;45.572;10.002;2023-04-24T05:06:03;13.30;99.90
21522;DHT22;10922;45.572;10.002;2023-04-24T05:08:29;13.40;99.90
21522;DHT22;10922;45.572;10.002;2023-04-24T05:10:55;13.40;99.90
21522;DHT22;10922;45.572;10.002;2023-04-24T05:13:21;13.40;99.90
21522;DHT22;10922;45.572;10.002;2023-04-24T05:15:46;13.40;99.90
21522;DHT22;10922;45.572;10.002;2023-04-24T05:18:12;13.40;99.90
21522;DHT22;10922;45.572;10.002;2023-04-24T05:20:38;13.40;1.00
21522;DHT22;10922;45.572;10.002;2023-04-24T05:23:03;13.40;99.90
21522;DHT22;10922;45.572;10.002;2023-04-24T05:25:29;13.40;99.90
21522;DHT22;10922;45.572;10.002;2023-04-24T05:27:57;13.50;99.90
21522;DHT22;10922;45.572;10.002;2023-04-24T05:30:23;13.70;99.90
21522;DHT22;10922;45.572;10.002;2023-04-24T05:32:48;13.70;99.90
21522;DHT22;10922;45.572;10.002;2023-04-24T05:35:14;13.70;99.90
21522;DHT22;10922;45.572;10.002;2023-04-24T05:37:40;13.90;99.90
21522;DHT22;10922;45.572;10.002;2023-04-24T05:40:06;14.00;99.90
21522;DHT22;10922;45.572;10.002;2023-04-24T05:42:32;14.10;99.90
21522;DHT22;10922;45.572;10.002;2023-04-24T05:44:57;14.20;99.90
21522;DHT22;10922;45.572;10.002;2023-04-24T05:47:23;14.50;99.90
21522;DHT22;10922;45.572;10.002;2023-04-24T05:49:49;14.40;99.90
21522;DHT22;10922;45.572;10.002;2023-04-24T05:52:14;14.60;99.90
21522;DHT22;10922;45.572;10.002;2023-04-24T05:54:40;14.50;99.90
21522;DHT22;10922;45.572;10.002;2023-04-24T05:57:06;14.60;99.90
21522;DHT22;10922;45.572;10.002;2023-04-24T05:59:41;14.60;99.90
21522;DHT22;10922;45.572;10.002;2023-04-24T06:02:07;14.60;99.90
21522;DHT22;10922;45.572;10.002;2023-04-24T06:04:33;14.50;99.90
21522;DHT22;10922;45.572;10.002;2023-04-24T06:06:59;14.60;99.90
21522;DHT22;10922;45.572;10.002;2023-04-24T06:09:25;14.60;99.90
21522;DHT22;10922;45.572;10.002;2023-04-24T06:11:51;14.60;99.90
21522;DHT22;10922;45.572;10.002;2023-04-24T06:14:22;14.60;99.90
21522;DHT22;10922;45.572;10.002;2023-04-24T06:16:48;14.50;99.90
21522;DHT22;10922;45.572;10.002;2023-04-24T06:19:14;14.40;99.90
21522;DHT22;10922;45.572;10.002;2023-04-24T06:21:40;14.50;99.90
21522;DHT22;10922;45.572;10.002;2023-04-24T06:24:05;14.40;99.90
21522;DHT22;10922;45.572;10.002;2023-04-24T06:26:31;14.50;99.90
21522;DHT22;10922;45.572;10.002;2023-04-24T06:28:57;14.50;99.90
21522;DHT22;10922;45.572;10.002;2023-04-24T06:31:24;14.40;99.90
21522;DHT22;10922;45.572;10.002;2023-04-24T06:33:50;14.40;99.90
21522;DHT22;10922;45.572;10.002;2023-04-24T06:36:16;14.60;99.90
21522;DHT22;10922;45.572;10.002;2023-04-24T06:38:42;14.60;99.90
21522;DHT22;10922;45.572;10.002;2023-04-24T06:41:07;14.60;99.90
21522;DHT22;10922;45.572;10.002;2023-04-24T06:43:33;14.60;99.90
21522;DHT22;10922;45.572;10.002;2023-04-24T06:45:59;14.50;99.90
21522;DHT22;10922;45.572;10.002;2023-04-24T06:48:25;14.50;99.90
21522;DHT22;10922;45.572;10.002;2023-04-24T06:50:52;14.60;99.90
21522;DHT22;10922;45.572;10.002;2023-04-24T06:53:18;14.50;99.90
21522;DHT22;10922;45.572;10.002;2023-04-24T06:55:44;14.40;99.90
21522;DHT22;10922;45.572;10.002;2023-04-24T06:58:11;14.40;99.90
21522;DHT22;10922;45.572;10.002;2023-04-24T07:00:37;14.40;99.90
21522;DHT22;10922;45.572;10.002;2023-04-24T07:03:04;14.40;99.90
21522;DHT22;10922;45.572;10.002;2023-04-24T07:05:31;14.40;99.90
21522;DHT22;10922;45.572;10.002;2023-04-24T07:07:59;14.40;99.90
21522;DHT22;10922;45.572;10.002;2023-04-24T07:10:24;14.50;99.90
21522;DHT22;10922;45.572;10.002;2023-04-24T07:12:52;14.50;99.90
21522;DHT22;10922;45.572;10.002;2023-04-24T07:15:18;14.50;99.90
21522;DHT22;10922;45.572;10.002;2023-04-24T07:17:44;14.50;99.90
21522;DHT22;10922;45.572;10.002;2023-04-24T07:20:10;14.40;99.90
21522;DHT22;10922;45.572;10.002;2023-04-24T07:22:40;14.40;99.90
21522;DHT22;10922;45.572;10.002;2023-04-24T07:25:06;14.40;99.90
21522;DHT22;10922;45.572;10.002;2023-04-24T07:27:33;14.50;99.90
21522;DHT22;10922;45.572;10.002;2023-04-24T07:29:58;14.50;99.90
21522;DHT22;10922;45.572;10.002;2023-04-24T07:32:24;14.60;99.90
21522;DHT22;10922;45.572;10.002;2023-04-24T07:34:50;14.60;99.90
21522;DHT22;10922;45.572;10.002;2023-04-24T07:37:16;14.60;99.90
21522;DHT22;10922;45.572;10.002;2023-04-24T07:39:42;14.80;99.90
21522;DHT22;10922;45.572;10.002;2023-04-24T07:42:07;14.80;99.90
21522;DHT22;10922;45.572;10.002;2023-04-24T07:44:33;15.20;99.90
21522;DHT22;10922;45.572;10.002;2023-04-24T07:46:59;15.50;99.90
21522;DHT22;10922;45.572;10.002;2023-04-24T07:49:25;15.60;99.90
21522;DHT22;10922;45.572;10.002;2023-04-24T07:51:50;15.70;99.90
21522;DHT22;10922;45.572;10.002;2023-04-24T07:54:16;15.90;99.90
21522;DHT22;10922;45.572;10.002;2023-04-24T07:56:44;16.10;99.90
21522;DHT22;10922;45.572;10.002;2023-04-24T07:59:10;16.40;99.90
21522;DHT22;10922;45.572;10.002;2023-04-24T08:01:36;16.50;99.90
21522;DHT22;10922;45.572;10.002;2023-04-24T08:04:02;16.40;99.90
21522;DHT22;10922;45.572;10.002;2023-04-24T08:06:28;16.40;99.90
21522;DHT22;10922;45.572;10.002;2023-04-24T08:08:56;16.20;99.90
21522;DHT22;10922;45.572;10.002;2023-04-24T08:11:21;15.80;99.90
21522;DHT22;10922;45.572;10.002;2023-04-24T08:13:47;15.60;99.90
21522;DHT22;10922;45.572;10.002;2023-04-24T08:16:13;15.50;99.90
21522;DHT22;10922;45.572;10.002;2023-04-24T08:18:39;15.60;99.90
21522;DHT22;10922;45.572;10.002;2023-04-24T08:21:04;15.50;99.90
21522;DHT22;10922;45.572;10.002;2023-04-24T08:23:30;15.20;99.90
21522;DHT22;10922;45.572;10.002;2023-04-24T08:25:56;15.00;99.90
21522;DHT22;10922;45.572;10.002;2023-04-24T08:28:22;14.90;99.90
21522;DHT22;10922;45.572;10.002;2023-04-24T08:30:48;14.90;99.90
21522;DHT22;10922;45.572;10.002;2023-04-24T08:33:14;14.80;99.90
21522;DHT22;10922;45.572;10.002;2023-04-24T08:35:40;14.80;99.90
21522;DHT22;10922;45.572;10.002;2023-04-24T08:38:06;15.10;99.90
21522;DHT22;10922;45.572;10.002;2023-04-24T08:40:34;15.10;99.90
21522;DHT22;10922;45.572;10.002;2023-04-24T08:43:00;15.30;99.90
21522;DHT22;10922;45.572;10.002;2023-04-24T08:45:26;15.40;99.90
21522;DHT22;10922;45.572;10.002;2023-04-24T08:47:55;15.60;99.90
21522;DHT22;10922;45.572;10.002;2023-04-24T08:50:21;15.70;99.90
21522;DHT22;10922;45.572;10.002;2023-04-24T08:52:50;15.50;99.90
21522;DHT22;10922;45.572;10.002;2023-04-24T08:55:16;15.50;99.90
21522;DHT22;10922;45.572;10.002;2023-04-24T08:57:48;15.80;99.90
21522;DHT22;10922;45.572;10.002;2023-04-24T09:00:15;15.80;99.90
21522;DHT22;10922;45.572;10.002;2023-04-24T09:02:45;15.70;99.90
21522;DHT22;10922;45.572;10.002;2023-04-24T09:05:12;15.90;99.90
21522;DHT22;10922;45.572;10.002;2023-04-24T09:07:39;16.00;99.90
21522;DHT22;10922;45.572;10.002;2023-04-24T09:10:07;16.20;99.90
21522;DHT22;10922;45.572;10.002;2023-04-24T09:12:34;16.30;99.90
21522;DHT22;10922;45.572;10.002;2023-04-24T09:15:02;16.30;99.90
21522;DHT22;10922;45.572;10.002;2023-04-24T09:17:30;16.20;99.90
21522;DHT22;10922;45.572;10.002;2023-04-24T09:19:55;16.10;99.90
21522;DHT22;10922;45.572;10.002;2023-04-24T09:22:21;16.20;99.90
21522;DHT22;10922;45.572;10.002;2023-04-24T09:24:47;16.20;99.90
21522;DHT22;10922;45.572;10.002;2023-04-24T09:27:13;16.60;99.90
21522;DHT22;10922;45.572;10.002;2023-04-24T09:30:02;16.90;99.90
21522;DHT22;10922;45.572;10.002;2023-04-24T09:32:28;16.70;99.90
21522;DHT22;10922;45.572;10.002;2023-04-24T09:35:10;16.60;99.90
21522;DHT22;10922;45.572;10.002;2023-04-24T09:37:45;16.80;99.90
21522;DHT22;10922;45.572;10.002;2023-04-24T09:40:29;17.10;99.90
21522;DHT22;10922;45.572;10.002;2023-04-24T09:42:56;16.90;99.90
21522;DHT22;10922;45.572;10.002;2023-04-24T09:45:35;17.20;99.90
21522;DHT22;10922;45.572;10.002;2023-04-24T09:48:02;16.90;99.90
21522;DHT22;10922;45.572;10.002;2023-04-24T09:50:30;17.10;99.90
21522;DHT22;10922;45.572;10.002;2023-04-24T09:53:02;17.10;99.90
21522;DHT22;10922;45.572;10.002;2023-04-24T09:55:29;17.30;99.90
21522;DHT22;10922;45.572;10.002;2023-04-24T09:58:00;17.40;99.90
21522;DHT22;10922;45.572;10.002;2023-04-24T10:00:28;17.70;99.90
21522;DHT22;10922;45.572;10.002;2023-04-24T10:02:58;17.50;99.90
21522;DHT22;10922;45.572;10.002;2023-04-24T10:05:26;17.50;99.90
21522;DHT22;10922;45.572;10.002;2023-04-24T10:07:56;17.60;99.90
21522;DHT22;10922;45.572;10.002;2023-04-24T10:10:22;17.40;99.90
21522;DHT22;10922;45.572;10.002;2023-04-24T10:12:49;17.20;99.90
21522;DHT22;10922;45.572;10.002;2023-04-24T10:15:16;17.30;99.90
21522;DHT22;10922;45.572;10.002;2023-04-24T10:17:49;17.60;99.90
21522;DHT22;10922;45.572;10.002;2023-04-24T10:20:22;17.90;99.90
21522;DHT22;10922;45.572;10.002;2023-04-24T10:22:50;18.10;99.90
21522;DHT22;10922;45.572;10.002;2023-04-24T10:25:21;18.20;99.90
21522;DHT22;10922;45.572;10.002;2023-04-24T10:27:48;18.30;99.90
21522;DHT22;10922;45.572;10.002;2023-04-24T10:30:15;18.30;99.90
21522;DHT22;10922;45.572;10.002;2023-04-24T10:32:41;18.40;99.90
21522;DHT22;10922;45.572;10.002;2023-04-24T10:35:07;18.20;99.90
21522;DHT22;10922;45.572;10.002;2023-04-24T10:38:01;18.40;99.90
21522;DHT22;10922;45.572;10.002;2023-04-24T10:40:34;18.20;99.90
21522;DHT22;10922;45.572;10.002;2023-04-24T10:43:05;18.30;99.90
21522;DHT22;10922;45.572;10.002;2023-04-24T10:45:33;18.40;99.90
21522;DHT22;10922;45.572;10.002;2023-04-24T10:48:05;18.50;99.90
21522;DHT22;10922;45.572;10.002;2023-04-24T10:50:52;18.80;99.90
21522;DHT22;10922;45.572;10.002;2023-04-24T10:53:21;18.80;99.90
21522;DHT22;10922;45.572;10.002;2023-04-24T10:56:06;19.10;99.90
21522;DHT22;10922;45.572;10.002;2023-04-24T10:58:38;19.40;99.90
21522;DHT22;10922;45.572;10.002;2023-04-24T11:01:05;19.30;99.90
21522;DHT22;10922;45.572;10.002;2023-04-24T11:03:33;19.30;99.90
21522;DHT22;10922;45.572;10.002;2023-04-24T11:06:07;19.40;99.90
21522;DHT22;10922;45.572;10.002;2023-04-24T11:08:43;19.20;99.90
21522;DHT22;10922;45.572;10.002;2023-04-24T11:11:16;19.70;99.90
21522;DHT22;10922;45.572;10.002;2023-04-24T11:18:51;20.00;99.90
21522;DHT22;10922;45.572;10.002;2023-04-24T11:21:20;19.60;99.90
21522;DHT22;10922;45.572;10.002;2023-04-24T11:23:46;19.40;99.90
21522;DHT22;10922;45.572;10.002;2023-04-24T11:26:21;19.80;99.90
21522;DHT22;10922;45.572;10.002;2023-04-24T11:28:50;19.20;99.90
21522;DHT22;10922;45.572;10.002;2023-04-24T11:31:35;19.00;99.90
21522;DHT22;10922;45.572;10.002;2023-04-24T11:34:11;19.20;99.90
21522;DHT22;10922;45.572;10.002;2023-04-24T11:36:39;19.40;99.90
21522;DHT22;10922;45.572;10.002;2023-04-24T11:39:04;19.10;99.90
21522;DHT22;10922;45.572;10.002;2023-04-24T11:41:30;19.20;99.90
21522;DHT22;10922;45.572;10.002;2023-04-24T11:43:57;19.30;99.90
21522;DHT22;10922;45.572;10.002;2023-04-24T11:46:26;19.40;99.90
21522;DHT22;10922;45.572;10.002;2023-04-24T11:48:52;19.20;99.90
21522;DHT22;10922;45.572;10.002;2023-04-24T11:51:18;19.50;99.90
21522;DHT22;10922;45.572;10.002;2023-04-24T11:53:44;19.70;99.90
21522;DHT22;10922;45.572;10.002;2023-04-24T11:56:09;20.30;99.90
21522;DHT22;10922;45.572;10.002;2023-04-24T11:58:38;19.70;99.90
21522;DHT22;10922;45.572;10.002;2023-04-24T12:01:04;19.80;99.90
21522;DHT22;10922;45.572;10.002;2023-04-24T12:03:31;20.10;99.90
21522;DHT22;10922;45.572;10.002;2023-04-24T12:06:07;19.90;99.90
21522;DHT22;10922;45.572;10.002;2023-04-24T12:08:36;20.00;99.90
21522;DHT22;10922;45.572;10.002;2023-04-24T12:11:06;20.20;99.90
21522;DHT22;10922;45.572;10.002;2023-04-24T12:13:35;20.10;99.90
21522;DHT22;10922;45.572;10.002;2023-04-24T12:16:02;20.40;99.90
21522;DHT22;10922;45.572;10.002;2023-04-24T12:18:29;20.40;99.90
21522;DHT22;10922;45.572;10.002;2023-04-24T12:20:55;20.50;99.90
21522;DHT22;10922;45.572;10.002;2023-04-24T12:23:33;20.20;99.90
21522;DHT22;10922;45.572;10.002;2023-04-24T12:26:03;20.40;99.90
21522;DHT22;10922;45.572;10.002;2023-04-24T12:28:35;20.70;99.90
21522;DHT22;10922;45.572;10.002;2023-04-24T12:31:01;21.00;99.90
21522;DHT22;10922;45.572;10.002;2023-04-24T12:33:27;20.90;99.90
21522;DHT22;10922;45.572;10.002;2023-04-24T12:35:57;21.00;99.90
21522;DHT22;10922;45.572;10.002;2023-04-24T12:38:25;21.10;99.90
21522;DHT22;10922;45.572;10.002;2023-04-24T12:41:06;21.30;99.90
21522;DHT22;10922;45.572;10.002;2023-04-24T12:43:32;21.20;99.90
21522;DHT22;10922;45.572;10.002;2023-04-24T12:45:58;21.50;99.90
21522;DHT22;10922;45.572;10.002;2023-04-24T12:48:25;24.70;99.90
21522;DHT22;10922;45.572;10.002;2023-04-24T12:50:51;26.30;99.90
21522;DHT22;10922;45.572;10.002;2023-04-24T12:53:17;27.90;99.90
21522;DHT22;10922;45.572;10.002;2023-04-24T12:55:43;28.10;99.90
21522;DHT22;10922;45.572;10.002;2023-04-24T12:58:10;28.10;99.90
21522;DHT22;10922;45.572;10.002;2023-04-24T13:00:36;30.10;99.90
21522;DHT22;10922;45.572;10.002;2023-04-24T13:03:02;28.90;99.90
21522;DHT22;10922;45.572;10.002;2023-04-24T13:05:28;30.20;99.90
21522;DHT22;10922;45.572;10.002;2023-04-24T13:07:53;30.10;99.90
21522;DHT22;10922;45.572;10.002;2023-04-24T13:10:19;29.30;99.90
21522;DHT22;10922;45.572;10.002;2023-04-24T13:12:46;30.50;99.90
21522;DHT22;10922;45.572;10.002;2023-04-24T13:15:12;30.90;99.90
21522;DHT22;10922;45.572;10.002;2023-04-24T13:17:38;30.50;99.90
21522;DHT22;10922;45.572;10.002;2023-04-24T13:20:04;32.50;99.90
21522;DHT22;10922;45.572;10.002;2023-04-24T13:22:30;31.70;99.90
21522;DHT22;10922;45.572;10.002;2023-04-24T13:24:56;29.10;99.90
21522;DHT22;10922;45.572;10.002;2023-04-24T13:27:22;29.60;99.90
21522;DHT22;10922;45.572;10.002;2023-04-24T13:29:48;32.20;99.90
21522;DHT22;10922;45.572;10.002;2023-04-24T13:32:14;32.40;99.90
21522;DHT22;10922;45.572;10.002;2023-04-24T13:34:39;33.30;99.90
21522;DHT22;10922;45.572;10.002;2023-04-24T13:37:05;34.90;99.90
21522;DHT22;10922;45.572;10.002;2023-04-24T13:39:31;32.60;99.90
21522;DHT22;10922;45.572;10.002;2023-04-24T13:41:57;31.70;99.90
21522;DHT22;10922;45.572;10.002;2023-04-24T13:44:23;33.80;99.90
21522;DHT22;10922;45.572;10.002;2023-04-24T13:46:51;31.20;99.90
21522;DHT22;10922;45.572;10.002;2023-04-24T13:49:19;32.20;99.90
21522;DHT22;10922;45.572;10.002;2023-04-24T13:51:46;31.10;99.90
21522;DHT22;10922;45.572;10.002;2023-04-24T13:54:11;29.70;99.90
21522;DHT22;10922;45.572;10.002;2023-04-24T13:56:41;26.70;99.90
21522;DHT22;10922;45.572;10.002;2023-04-24T13:59:07;23.90;99.90
21522;DHT22;10922;45.572;10.002;2023-04-24T14:01:33;23.00;99.90
21522;DHT22;10922;45.572;10.002;2023-04-24T14:03:59;22.70;99.90
21522;DHT22;10922;45.572;10.002;2023-04-24T14:06:25;22.20;99.90
21522;DHT22;10922;45.572;10.002;2023-04-24T14:08:51;21.70;99.90
21522;DHT22;10922;45.572;10.002;2023-04-24T14:11:18;21.10;99.90
21522;DHT22;10922;45.572;10.002;2023-04-24T14:13:45;14.20;99.90
21522;DHT22;10922;45.572;10.002;2023-04-24T14:16:11;17.30;99.90
21522;DHT22;10922;45.572;10.002;2023-04-24T14:18:37;20.70;99.90
21522;DHT22;10922;45.572;10.002;2023-04-24T14:21:03;21.90;99.90
21522;DHT22;10922;45.572;10.002;2023-04-24T14:23:30;24.70;99.90
21522;DHT22;10922;45.572;10.002;2023-04-24T14:25:57;30.20;99.90
21522;DHT22;10922;45.572;10.002;2023-04-24T14:28:22;29.40;99.90
21522;DHT22;10922;45.572;10.002;2023-04-24T14:30:48;31.50;99.90
21522;DHT22;10922;45.572;10.002;2023-04-24T14:33:14;29.20;99.90
21522;DHT22;10922;45.572;10.002;2023-04-24T14:35:41;30.90;1.00
21522;DHT22;10922;45.572;10.002;2023-04-24T14:38:10;32.60;99.90
21522;DHT22;10922;45.572;10.002;2023-04-24T14:40:36;33.50;99.90
21522;DHT22;10922;45.572;10.002;2023-04-24T14:43:02;30.90;99.90
21522;DHT22;10922;45.572;10.002;2023-04-24T14:45:28;32.50;99.90
21522;DHT22;10922;45.572;10.002;2023-04-24T14:47:54;31.30;99.90
21522;DHT22;10922;45.572;10.002;2023-04-24T14:50:19;28.20;99.90
21522;DHT22;10922;45.572;10.002;2023-04-24T14:52:46;26.00;99.90
21522;DHT22;10922;45.572;10.002;2023-04-24T14:55:12;24.80;99.90
21522;DHT22;10922;45.572;10.002;2023-04-24T14:57:37;23.90;99.90
21522;DHT22;10922;45.572;10.002;2023-04-24T15:00:07;23.10;99.90
21522;DHT22;10922;45.572;10.002;2023-04-24T15:02:36;25.10;99.90
21522;DHT22;10922;45.572;10.002;2023-04-24T15:05:06;26.40;99.90
21522;DHT22;10922;45.572;10.002;2023-04-24T15:07:31;24.70;99.90
21522;DHT22;10922;45.572;10.002;2023-04-24T15:09:58;25.70;99.90
21522;DHT22;10922;45.572;10.002;2023-04-24T15:12:24;31.20;99.90
21522;DHT22;10922;45.572;10.002;2023-04-24T15:14:50;33.80;99.90
21522;DHT22;10922;45.572;10.002;2023-04-24T15:17:15;32.20;99.90
21522;DHT22;10922;45.572;10.002;2023-04-24T15:19:41;29.20;99.90
21522;DHT22;10922;45.572;10.002;2023-04-24T15:22:09;28.90;99.90